sensor_id;sensor_type;location;lat;lon;timestamp;P1;durP1;ratioP1;P2;durP2;ratioP2
15643;SDS011;7921;43.586;1.408;2022-08-14T00:02:24;9.10;;;4.45;;
15643;SDS011;7921;43.586;1.408;2022-08-14T00:04:50;9.98;;;4.47;;
15643;SDS011;7921;43.586;1.408;2022-08-14T00:07:16;9.38;;;4.07;;
15643;SDS011;7921;43.586;1.408;2022-08-14T00:09:42;7.47;;;3.50;;
15643;SDS011;7921;43.586;1.408;2022-08-14T00:12:08;10.23;;;4.28;;
15643;SDS011;7921;43.586;1.408;2022-08-14T00:14:33;7.75;;;4.07;;
15643;SDS011;7921;43.586;1.408;2022-08-14T00:16:59;6.45;;;4.30;;
15643;SDS011;7921;43.586;1.408;2022-08-14T00:19:24;7.15;;;4.07;;
15643;SDS011;7921;43.586;1.408;2022-08-14T00:21:50;8.50;;;3.53;;
15643;SDS011;7921;43.586;1.408;2022-08-14T00:24:20;8.93;;;4.15;;
15643;SDS011;7921;43.586;1.408;2022-08-14T00:26:46;8.77;;;3.58;;
15643;SDS011;7921;43.586;1.408;2022-08-14T00:29:11;10.32;;;3.88;;
15643;SDS011;7921;43.586;1.408;2022-08-14T00:31:36;9.77;;;4.05;;
15643;SDS011;7921;43.586;1.408;2022-08-14T00:34:02;10.07;;;4.13;;
15643;SDS011;7921;43.586;1.408;2022-08-14T00:36:27;8.70;;;4.40;;
15643;SDS011;7921;43.586;1.408;2022-08-14T00:38:53;7.03;;;4.10;;
15643;SDS011;7921;43.586;1.408;2022-08-14T00:41:19;8.27;;;4.40;;
15643;SDS011;7921;43.586;1.408;2022-08-14T00:43:44;8.10;;;5.05;;
15643;SDS011;7921;43.586;1.408;2022-08-14T00:46:10;12.05;;;5.80;;
15643;SDS011;7921;43.586;1.408;2022-08-14T00:48:36;9.18;;;5.80;;
15643;SDS011;7921;43.586;1.408;2022-08-14T00:51:03;7.50;;;5.63;;
15643;SDS011;7921;43.586;1.408;2022-08-14T00:53:29;7.40;;;5.55;;
15643;SDS011;7921;43.586;1.408;2022-08-14T00:55:55;9.35;;;6.38;;
15643;SDS011;7921;43.586;1.408;2022-08-14T00:58:21;7.55;;;6.15;;
15643;SDS011;7921;43.586;1.408;2022-08-14T01:01:01;9.43;;;7.05;;
15643;SDS011;7921;43.586;1.408;2022-08-14T01:03:34;9.73;;;6.32;;
15643;SDS011;7921;43.586;1.408;2022-08-14T01:06:04;9.50;;;6.40;;
15643;SDS011;7921;43.586;1.408;2022-08-14T01:08:34;9.10;;;6.82;;
15643;SDS011;7921;43.586;1.408;2022-08-14T01:11:00;8.32;;;6.53;;
15643;SDS011;7921;43.586;1.408;2022-08-14T01:13:28;7.55;;;6.15;;
15643;SDS011;7921;43.586;1.408;2022-08-14T01:15:56;7.10;;;6.47;;
15643;SDS011;7921;43.586;1.408;2022-08-14T01:18:24;8.90;;;6.50;;
15643;SDS011;7921;43.586;1.408;2022-08-14T01:21:09;8.73;;;7.20;;
15643;SDS011;7921;43.586;1.408;2022-08-14T01:23:38;8.57;;;6.47;;
15643;SDS011;7921;43.586;1.408;2022-08-14T01:26:05;7.18;;;6.65;;
15643;SDS011;7921;43.586;1.408;2022-08-14T01:28:31;8.13;;;7.32;;
15643;SDS011;7921;43.586;1.408;2022-08-14T01:31:02;9.95;;;7.97;;
15643;SDS011;7921;43.586;1.408;2022-08-14T01:33:30;8.57;;;7.78;;
15643;SDS011;7921;43.586;1.408;2022-08-14T01:35:57;8.93;;;8.02;;
15643;SDS011;7921;43.586;1.408;2022-08-14T01:38:24;9.52;;;8.63;;
15643;SDS011;7921;43.586;1.408;2022-08-14T01:40:50;8.43;;;7.72;;
15643;SDS011;7921;43.586;1.408;2022-08-14T01:43:17;8.88;;;7.97;;
15643;SDS011;7921;43.586;1.408;2022-08-14T01:45:42;9.63;;;8.15;;
15643;SDS011;7921;43.586;1.408;2022-08-14T01:48:09;7.65;;;6.95;;
15643;SDS011;7921;43.586;1.408;2022-08-14T01:50:35;8.23;;;7.45;;
15643;SDS011;7921;43.586;1.408;2022-08-14T01:53:00;8.10;;;7.40;;
15643;SDS011;7921;43.586;1.408;2022-08-14T01:55:26;9.73;;;8.55;;
15643;SDS011;7921;43.586;1.408;2022-08-14T01:57:54;8.48;;;7.68;;
15643;SDS011;7921;43.586;1.408;2022-08-14T02:00:19;7.63;;;7.07;;
15643;SDS011;7921;43.586;1.408;2022-08-14T02:02:45;8.45;;;7.63;;
15643;SDS011;7921;43.586;1.408;2022-08-14T02:05:11;9.50;;;7.70;;
15643;SDS011;7921;43.586;1.408;2022-08-14T02:07:37;8.07;;;7.28;;
15643;SDS011;7921;43.586;1.408;2022-08-14T02:10:04;7.75;;;7.05;;
15643;SDS011;7921;43.586;1.408;2022-08-14T02:12:30;7.10;;;6.40;;
15643;SDS011;7921;43.586;1.408;2022-08-14T02:14:56;8.23;;;7.40;;
15643;SDS011;7921;43.586;1.408;2022-08-14T02:17:22;7.43;;;6.85;;
15643;SDS011;7921;43.586;1.408;2022-08-14T02:19:48;7.68;;;6.95;;
15643;SDS011;7921;43.586;1.408;2022-08-14T02:22:14;7.82;;;6.72;;
15643;SDS011;7921;43.586;1.408;2022-08-14T02:24:43;7.72;;;6.93;;
15643;SDS011;7921;43.586;1.408;2022-08-14T02:27:09;7.28;;;6.15;;
15643;SDS011;7921;43.586;1.408;2022-08-14T02:29:35;8.15;;;6.40;;
15643;SDS011;7921;43.586;1.408;2022-08-14T02:32:01;7.43;;;6.70;;
15643;SDS011;7921;43.586;1.408;2022-08-14T02:34:28;7.40;;;6.20;;
15643;SDS011;7921;43.586;1.408;2022-08-14T02:36:57;6.97;;;6.28;;
15643;SDS011;7921;43.586;1.408;2022-08-14T02:39:26;7.65;;;5.97;;
15643;SDS011;7921;43.586;1.408;2022-08-14T02:41:55;7.25;;;6.38;;
15643;SDS011;7921;43.586;1.408;2022-08-14T02:44:22;7.68;;;6.88;;
15643;SDS011;7921;43.586;1.408;2022-08-14T02:46:48;8.50;;;6.43;;
15643;SDS011;7921;43.586;1.408;2022-08-14T02:49:14;6.22;;;5.72;;
15643;SDS011;7921;43.586;1.408;2022-08-14T02:51:40;6.90;;;6.30;;
15643;SDS011;7921;43.586;1.408;2022-08-14T02:54:06;6.93;;;6.32;;
15643;SDS011;7921;43.586;1.408;2022-08-14T02:56:33;6.38;;;5.85;;
15643;SDS011;7921;43.586;1.408;2022-08-14T02:59:02;8.30;;;6.43;;
15643;SDS011;7921;43.586;1.408;2022-08-14T03:01:30;7.85;;;6.35;;
15643;SDS011;7921;43.586;1.408;2022-08-14T03:03:56;8.07;;;7.28;;
15643;SDS011;7921;43.586;1.408;2022-08-14T03:06:21;7.38;;;6.53;;
15643;SDS011;7921;43.586;1.408;2022-08-14T03:08:48;8.07;;;6.28;;
15643;SDS011;7921;43.586;1.408;2022-08-14T03:11:14;6.93;;;6.30;;
15643;SDS011;7921;43.586;1.408;2022-08-14T03:13:41;6.22;;;5.72;;
15643;SDS011;7921;43.586;1.408;2022-08-14T03:16:09;6.45;;;5.85;;
15643;SDS011;7921;43.586;1.408;2022-08-14T03:18:38;6.50;;;6.00;;
15643;SDS011;7921;43.586;1.408;2022-08-14T03:21:06;6.18;;;5.68;;
15643;SDS011;7921;43.586;1.408;2022-08-14T03:23:33;6.72;;;6.22;;
15643;SDS011;7921;43.586;1.408;2022-08-14T03:26:00;6.95;;;6.35;;
15643;SDS011;7921;43.586;1.408;2022-08-14T03:28:27;7.43;;;6.45;;
15643;SDS011;7921;43.586;1.408;2022-08-14T03:30:54;7.20;;;6.50;;
15643;SDS011;7921;43.586;1.408;2022-08-14T03:33:21;7.28;;;6.30;;
15643;SDS011;7921;43.586;1.408;2022-08-14T03:35:47;7.05;;;6.45;;
15643;SDS011;7921;43.586;1.408;2022-08-14T03:38:13;7.32;;;6.35;;
15643;SDS011;7921;43.586;1.408;2022-08-14T03:40:41;6.53;;;5.93;;
15643;SDS011;7921;43.586;1.408;2022-08-14T03:43:07;6.47;;;5.85;;
15643;SDS011;7921;43.586;1.408;2022-08-14T03:45:34;6.85;;;6.13;;
15643;SDS011;7921;43.586;1.408;2022-08-14T03:48:01;7.03;;;6.28;;
15643;SDS011;7921;43.586;1.408;2022-08-14T03:50:29;6.95;;;6.35;;
15643;SDS011;7921;43.586;1.408;2022-08-14T03:52:56;6.50;;;5.95;;
15643;SDS011;7921;43.586;1.408;2022-08-14T03:55:23;6.65;;;6.00;;
15643;SDS011;7921;43.586;1.408;2022-08-14T03:57:48;7.40;;;6.80;;
15643;SDS011;7921;43.586;1.408;2022-08-14T04:00:14;6.82;;;6.13;;
15643;SDS011;7921;43.586;1.408;2022-08-14T04:02:40;7.50;;;6.80;;
15643;SDS011;7921;43.586;1.408;2022-08-14T04:05:08;6.93;;;6.32;;
15643;SDS011;7921;43.586;1.408;2022-08-14T04:07:34;7.28;;;6.68;;
15643;SDS011;7921;43.586;1.408;2022-08-14T04:10:03;7.45;;;6.63;;
15643;SDS011;7921;43.586;1.408;2022-08-14T04:12:30;7.57;;;6.93;;
15643;SDS011;7921;43.586;1.408;2022-08-14T04:14:56;7.45;;;6.85;;
15643;SDS011;7921;43.586;1.408;2022-08-14T04:17:22;8.40;;;7.70;;
15643;SDS011;7921;43.586;1.408;2022-08-14T04:19:48;7.05;;;6.47;;
15643;SDS011;7921;43.586;1.408;2022-08-14T04:22:13;8.55;;;7.63;;
15643;SDS011;7921;43.586;1.408;2022-08-14T04:24:39;7.60;;;6.57;;
15643;SDS011;7921;43.586;1.408;2022-08-14T04:27:08;8.13;;;7.50;;
15643;SDS011;7921;43.586;1.408;2022-08-14T04:29:41;7.85;;;7.05;;
15643;SDS011;7921;43.586;1.408;2022-08-14T04:32:07;8.38;;;7.43;;
15643;SDS011;7921;43.586;1.408;2022-08-14T04:34:34;7.57;;;6.88;;
15643;SDS011;7921;43.586;1.408;2022-08-14T04:37:03;8.65;;;7.38;;
15643;SDS011;7921;43.586;1.408;2022-08-14T04:39:48;7.85;;;7.15;;
15643;SDS011;7921;43.586;1.408;2022-08-14T04:42:33;8.07;;;7.28;;
15643;SDS011;7921;43.586;1.408;2022-08-14T04:45:20;8.05;;;7.35;;
15643;SDS011;7921;43.586;1.408;2022-08-14T04:47:47;7.65;;;6.95;;
15643;SDS011;7921;43.586;1.408;2022-08-14T04:50:33;8.25;;;7.45;;
15643;SDS011;7921;43.586;1.408;2022-08-14T04:52:59;8.52;;;7.80;;
15643;SDS011;7921;43.586;1.408;2022-08-14T04:55:25;8.38;;;7.57;;
15643;SDS011;7921;43.586;1.408;2022-08-14T04:57:50;8.43;;;7.63;;
15643;SDS011;7921;43.586;1.408;2022-08-14T05:00:16;7.68;;;7.07;;
15643;SDS011;7921;43.586;1.408;2022-08-14T05:02:41;7.75;;;7.00;;
15643;SDS011;7921;43.586;1.408;2022-08-14T05:05:07;9.13;;;7.75;;
15643;SDS011;7921;43.586;1.408;2022-08-14T05:07:32;8.05;;;7.25;;
15643;SDS011;7921;43.586;1.408;2022-08-14T05:09:58;8.00;;;7.20;;
15643;SDS011;7921;43.586;1.408;2022-08-14T05:12:23;8.88;;;7.65;;
15643;SDS011;7921;43.586;1.408;2022-08-14T05:14:49;9.05;;;8.15;;
15643;SDS011;7921;43.586;1.408;2022-08-14T05:17:14;8.23;;;7.43;;
15643;SDS011;7921;43.586;1.408;2022-08-14T05:19:39;8.25;;;7.65;;
15643;SDS011;7921;43.586;1.408;2022-08-14T05:22:05;7.68;;;7.10;;
15643;SDS011;7921;43.586;1.408;2022-08-14T05:24:31;8.23;;;7.57;;
15643;SDS011;7921;43.586;1.408;2022-08-14T05:26:57;8.77;;;8.05;;
15643;SDS011;7921;43.586;1.408;2022-08-14T05:29:24;8.15;;;7.55;;
15643;SDS011;7921;43.586;1.408;2022-08-14T05:31:49;8.68;;;7.88;;
15643;SDS011;7921;43.586;1.408;2022-08-14T05:34:15;8.00;;;7.30;;
15643;SDS011;7921;43.586;1.408;2022-08-14T05:36:41;9.00;;;8.20;;
15643;SDS011;7921;43.586;1.408;2022-08-14T05:39:06;8.40;;;7.60;;
15643;SDS011;7921;43.586;1.408;2022-08-14T05:41:32;9.00;;;8.10;;
15643;SDS011;7921;43.586;1.408;2022-08-14T05:43:58;9.65;;;8.52;;
15643;SDS011;7921;43.586;1.408;2022-08-14T05:46:24;7.90;;;7.18;;
15643;SDS011;7921;43.586;1.408;2022-08-14T05:48:54;9.75;;;8.07;;
15643;SDS011;7921;43.586;1.408;2022-08-14T05:51:21;8.18;;;7.45;;
15643;SDS011;7921;43.586;1.408;2022-08-14T05:53:47;8.30;;;7.50;;
15643;SDS011;7921;43.586;1.408;2022-08-14T05:56:13;8.57;;;7.80;;
15643;SDS011;7921;43.586;1.408;2022-08-14T05:58:38;8.73;;;7.93;;
15643;SDS011;7921;43.586;1.408;2022-08-14T06:01:04;9.45;;;7.53;;
15643;SDS011;7921;43.586;1.408;2022-08-14T06:03:30;8.85;;;8.15;;
15643;SDS011;7921;43.586;1.408;2022-08-14T06:05:55;8.43;;;7.72;;
15643;SDS011;7921;43.586;1.408;2022-08-14T06:08:22;8.65;;;7.90;;
15643;SDS011;7921;43.586;1.408;2022-08-14T06:10:49;8.43;;;7.63;;
15643;SDS011;7921;43.586;1.408;2022-08-14T06:13:15;8.90;;;8.10;;
15643;SDS011;7921;43.586;1.408;2022-08-14T06:15:41;9.35;;;8.32;;
15643;SDS011;7921;43.586;1.408;2022-08-14T06:18:07;8.88;;;8.18;;
15643;SDS011;7921;43.586;1.408;2022-08-14T06:20:32;8.82;;;7.85;;
15643;SDS011;7921;43.586;1.408;2022-08-14T06:22:58;8.32;;;7.72;;
15643;SDS011;7921;43.586;1.408;2022-08-14T06:25:24;9.23;;;8.43;;
15643;SDS011;7921;43.586;1.408;2022-08-14T06:27:49;8.95;;;8.05;;
15643;SDS011;7921;43.586;1.408;2022-08-14T06:30:17;8.63;;;7.93;;
15643;SDS011;7921;43.586;1.408;2022-08-14T06:32:45;8.48;;;7.78;;
15643;SDS011;7921;43.586;1.408;2022-08-14T06:35:11;8.93;;;7.85;;
15643;SDS011;7921;43.586;1.408;2022-08-14T06:37:54;8.70;;;7.95;;
15643;SDS011;7921;43.586;1.408;2022-08-14T06:40:23;10.73;;;8.30;;
15643;SDS011;7921;43.586;1.408;2022-08-14T06:42:50;8.20;;;7.50;;
15643;SDS011;7921;43.586;1.408;2022-08-14T06:45:16;8.90;;;8.10;;
15643;SDS011;7921;43.586;1.408;2022-08-14T06:47:43;7.95;;;7.25;;
15643;SDS011;7921;43.586;1.408;2022-08-14T06:50:10;8.27;;;7.43;;
15643;SDS011;7921;43.586;1.408;2022-08-14T06:52:39;8.48;;;7.80;;
15643;SDS011;7921;43.586;1.408;2022-08-14T06:55:06;8.05;;;7.35;;
15643;SDS011;7921;43.586;1.408;2022-08-14T06:57:36;7.20;;;6.65;;
15643;SDS011;7921;43.586;1.408;2022-08-14T07:00:10;8.23;;;7.40;;
15643;SDS011;7921;43.586;1.408;2022-08-14T07:02:39;8.15;;;7.38;;
15643;SDS011;7921;43.586;1.408;2022-08-14T07:05:23;7.78;;;7.18;;
15643;SDS011;7921;43.586;1.408;2022-08-14T07:08:50;7.80;;;6.88;;
15643;SDS011;7921;43.586;1.408;2022-08-14T07:10:59;7.05;;;6.53;;
15643;SDS011;7921;43.586;1.408;2022-08-14T07:13:25;7.10;;;6.40;;
15643;SDS011;7921;43.586;1.408;2022-08-14T07:15:52;7.05;;;6.35;;
15643;SDS011;7921;43.586;1.408;2022-08-14T07:18:22;7.40;;;6.45;;
15643;SDS011;7921;43.586;1.408;2022-08-14T07:20:49;7.00;;;6.43;;
15643;SDS011;7921;43.586;1.408;2022-08-14T07:23:14;7.45;;;6.75;;
15643;SDS011;7921;43.586;1.408;2022-08-14T07:25:40;7.60;;;6.90;;
15643;SDS011;7921;43.586;1.408;2022-08-14T07:28:27;6.63;;;6.13;;
15643;SDS011;7921;43.586;1.408;2022-08-14T07:31:01;8.10;;;6.63;;
15643;SDS011;7921;43.586;1.408;2022-08-14T07:33:29;7.22;;;6.53;;
15643;SDS011;7921;43.586;1.408;2022-08-14T07:35:59;7.18;;;6.45;;
15643;SDS011;7921;43.586;1.408;2022-08-14T07:38:26;6.72;;;5.90;;
15643;SDS011;7921;43.586;1.408;2022-08-14T07:40:54;6.22;;;5.72;;
15643;SDS011;7921;43.586;1.408;2022-08-14T07:43:19;5.68;;;5.28;;
15643;SDS011;7921;43.586;1.408;2022-08-14T07:45:46;5.93;;;5.43;;
15643;SDS011;7921;43.586;1.408;2022-08-14T07:48:11;5.97;;;5.07;;
15643;SDS011;7921;43.586;1.408;2022-08-14T07:50:36;6.43;;;4.95;;
15643;SDS011;7921;43.586;1.408;2022-08-14T07:53:03;6.05;;;5.55;;
15643;SDS011;7921;43.586;1.408;2022-08-14T07:55:30;5.68;;;5.10;;
15643;SDS011;7921;43.586;1.408;2022-08-14T07:57:56;5.28;;;4.82;;
15643;SDS011;7921;43.586;1.408;2022-08-14T08:00:22;5.70;;;5.10;;
15643;SDS011;7921;43.586;1.408;2022-08-14T08:02:51;5.80;;;5.03;;
15643;SDS011;7921;43.586;1.408;2022-08-14T08:05:19;4.75;;;4.30;;
15643;SDS011;7921;43.586;1.408;2022-08-14T08:07:46;4.93;;;4.45;;
15643;SDS011;7921;43.586;1.408;2022-08-14T08:15:31;4.65;;;4.25;;
15643;SDS011;7921;43.586;1.408;2022-08-14T08:18:04;5.10;;;4.70;;
15643;SDS011;7921;43.586;1.408;2022-08-14T08:20:32;5.60;;;5.10;;
15643;SDS011;7921;43.586;1.408;2022-08-14T08:22:59;4.63;;;4.32;;
15643;SDS011;7921;43.586;1.408;2022-08-14T08:25:27;6.00;;;4.72;;
15643;SDS011;7921;43.586;1.408;2022-08-14T08:27:57;5.22;;;4.80;;
15643;SDS011;7921;43.586;1.408;2022-08-14T08:30:25;5.40;;;4.78;;
15643;SDS011;7921;43.586;1.408;2022-08-14T08:32:52;6.22;;;4.80;;
15643;SDS011;7921;43.586;1.408;2022-08-14T08:35:19;4.65;;;4.15;;
15643;SDS011;7921;43.586;1.408;2022-08-14T08:37:46;4.93;;;4.53;;
15643;SDS011;7921;43.586;1.408;2022-08-14T08:40:22;4.53;;;4.13;;
15643;SDS011;7921;43.586;1.408;2022-08-14T08:42:51;4.45;;;4.05;;
15643;SDS011;7921;43.586;1.408;2022-08-14T08:45:17;5.05;;;4.22;;
15643;SDS011;7921;43.586;1.408;2022-08-14T08:47:43;4.97;;;4.57;;
15643;SDS011;7921;43.586;1.408;2022-08-14T08:52:51;6.97;;;5.57;;
15643;SDS011;7921;43.586;1.408;2022-08-14T08:55:51;4.50;;;4.20;;
15643;SDS011;7921;43.586;1.408;2022-08-14T08:58:10;4.93;;;4.45;;
15643;SDS011;7921;43.586;1.408;2022-08-14T09:00:39;4.53;;;4.20;;
15643;SDS011;7921;43.586;1.408;2022-08-14T09:03:07;4.43;;;4.13;;
15643;SDS011;7921;43.586;1.408;2022-08-14T09:05:35;4.40;;;4.10;;
15643;SDS011;7921;43.586;1.408;2022-08-14T09:08:21;4.35;;;4.05;;
15643;SDS011;7921;43.586;1.408;2022-08-14T09:10:51;4.78;;;4.13;;
15643;SDS011;7921;43.586;1.408;2022-08-14T09:13:18;4.10;;;3.80;;
15643;SDS011;7921;43.586;1.408;2022-08-14T09:15:47;4.20;;;3.90;;
15643;SDS011;7921;43.586;1.408;2022-08-14T09:18:14;5.40;;;4.10;;
15643;SDS011;7921;43.586;1.408;2022-08-14T09:20:42;4.40;;;4.00;;
15643;SDS011;7921;43.586;1.408;2022-08-14T09:23:13;4.63;;;4.07;;
15643;SDS011;7921;43.586;1.408;2022-08-14T09:25:39;4.28;;;3.88;;
15643;SDS011;7921;43.586;1.408;2022-08-14T09:28:06;5.53;;;5.03;;
15643;SDS011;7921;43.586;1.408;2022-08-14T09:30:33;4.00;;;3.60;;
15643;SDS011;7921;43.586;1.408;2022-08-14T09:38:21;4.80;;;3.80;;
15643;SDS011;7921;43.586;1.408;2022-08-14T09:45:56;3.92;;;3.53;;
15643;SDS011;7921;43.586;1.408;2022-08-14T09:48:23;3.55;;;3.25;;
15643;SDS011;7921;43.586;1.408;2022-08-14T09:50:51;6.70;;;4.18;;
15643;SDS011;7921;43.586;1.408;2022-08-14T09:54:04;4.13;;;3.60;;
15643;SDS011;7921;43.586;1.408;2022-08-14T09:56:08;3.85;;;3.38;;
15643;SDS011;7921;43.586;1.408;2022-08-14T09:58:39;3.67;;;3.38;;
15643;SDS011;7921;43.586;1.408;2022-08-14T10:01:13;4.10;;;3.65;;
15643;SDS011;7921;43.586;1.408;2022-08-14T10:03:54;4.18;;;3.78;;
15643;SDS011;7921;43.586;1.408;2022-08-14T10:06:22;4.03;;;3.63;;
15643;SDS011;7921;43.586;1.408;2022-08-14T10:09:02;5.32;;;4.00;;
15643;SDS011;7921;43.586;1.408;2022-08-14T10:11:30;4.85;;;3.30;;
15643;SDS011;7921;43.586;1.408;2022-08-14T10:14:15;4.38;;;3.88;;
15643;SDS011;7921;43.586;1.408;2022-08-14T10:16:45;3.85;;;3.35;;
15643;SDS011;7921;43.586;1.408;2022-08-14T10:19:13;3.55;;;3.00;;
15643;SDS011;7921;43.586;1.408;2022-08-14T10:21:41;3.47;;;3.17;;
15643;SDS011;7921;43.586;1.408;2022-08-14T10:24:24;3.50;;;3.15;;
15643;SDS011;7921;43.586;1.408;2022-08-14T10:27:14;4.38;;;3.85;;
15643;SDS011;7921;43.586;1.408;2022-08-14T10:29:47;4.13;;;3.20;;
15643;SDS011;7921;43.586;1.408;2022-08-14T10:32:24;5.57;;;3.85;;
15643;SDS011;7921;43.586;1.408;2022-08-14T10:34:50;2.92;;;2.67;;
15643;SDS011;7921;43.586;1.408;2022-08-14T10:37:26;3.85;;;2.90;;
15643;SDS011;7921;43.586;1.408;2022-08-14T10:40:02;3.95;;;2.70;;
15643;SDS011;7921;43.586;1.408;2022-08-14T10:42:35;4.40;;;2.88;;
15643;SDS011;7921;43.586;1.408;2022-08-14T10:45:02;4.03;;;3.60;;
15643;SDS011;7921;43.586;1.408;2022-08-14T10:47:35;6.35;;;3.25;;
15643;SDS011;7921;43.586;1.408;2022-08-14T10:50:04;4.13;;;3.72;;
15643;SDS011;7921;43.586;1.408;2022-08-14T10:52:30;3.50;;;3.20;;
15643;SDS011;7921;43.586;1.408;2022-08-14T10:57:48;3.55;;;3.10;;
15643;SDS011;7921;43.586;1.408;2022-08-14T11:00:15;3.80;;;3.50;;
15643;SDS011;7921;43.586;1.408;2022-08-14T11:02:42;4.45;;;4.05;;
15643;SDS011;7921;43.586;1.408;2022-08-14T11:05:12;4.22;;;3.55;;
15643;SDS011;7921;43.586;1.408;2022-08-14T11:07:53;3.47;;;3.17;;
15643;SDS011;7921;43.586;1.408;2022-08-14T11:10:20;4.65;;;3.42;;
15643;SDS011;7921;43.586;1.408;2022-08-14T11:12:50;3.08;;;2.78;;
15643;SDS011;7921;43.586;1.408;2022-08-14T11:15:18;3.50;;;3.20;;
15643;SDS011;7921;43.586;1.408;2022-08-14T11:17:48;4.40;;;3.05;;
15643;SDS011;7921;43.586;1.408;2022-08-14T11:20:16;4.65;;;3.35;;
15643;SDS011;7921;43.586;1.408;2022-08-14T11:22:43;3.28;;;2.95;;
15643;SDS011;7921;43.586;1.408;2022-08-14T11:25:11;3.65;;;2.88;;
15643;SDS011;7921;43.586;1.408;2022-08-14T11:27:39;2.45;;;2.25;;
15643;SDS011;7921;43.586;1.408;2022-08-14T11:30:07;3.45;;;3.15;;
15643;SDS011;7921;43.586;1.408;2022-08-14T11:32:40;5.65;;;3.53;;
15643;SDS011;7921;43.586;1.408;2022-08-14T11:35:15;5.30;;;3.47;;
15643;SDS011;7921;43.586;1.408;2022-08-14T11:40:26;3.38;;;3.08;;
15643;SDS011;7921;43.586;1.408;2022-08-14T11:42:53;3.63;;;2.78;;
15643;SDS011;7921;43.586;1.408;2022-08-14T11:45:25;3.40;;;3.10;;
15643;SDS011;7921;43.586;1.408;2022-08-14T11:47:56;4.00;;;3.08;;
15643;SDS011;7921;43.586;1.408;2022-08-14T11:50:23;2.60;;;2.40;;
15643;SDS011;7921;43.586;1.408;2022-08-14T11:52:55;3.63;;;2.50;;
15643;SDS011;7921;43.586;1.408;2022-08-14T11:55:22;4.72;;;2.83;;
15643;SDS011;7921;43.586;1.408;2022-08-14T11:57:57;5.38;;;2.90;;
15643;SDS011;7921;43.586;1.408;2022-08-14T12:00:25;3.17;;;2.60;;
15643;SDS011;7921;43.586;1.408;2022-08-14T12:02:51;2.63;;;2.42;;
15643;SDS011;7921;43.586;1.408;2022-08-14T12:05:35;4.93;;;3.03;;
15643;SDS011;7921;43.586;1.408;2022-08-14T12:08:03;6.55;;;3.53;;
15643;SDS011;7921;43.586;1.408;2022-08-14T12:10:31;4.88;;;3.13;;
15643;SDS011;7921;43.586;1.408;2022-08-14T12:13:08;3.90;;;3.15;;
15643;SDS011;7921;43.586;1.408;2022-08-14T12:15:44;5.45;;;3.05;;
15643;SDS011;7921;43.586;1.408;2022-08-14T12:18:12;3.60;;;3.00;;
15643;SDS011;7921;43.586;1.408;2022-08-14T12:20:39;5.85;;;2.63;;
15643;SDS011;7921;43.586;1.408;2022-08-14T12:23:21;4.22;;;2.50;;
15643;SDS011;7921;43.586;1.408;2022-08-14T12:25:48;3.40;;;2.50;;
15643;SDS011;7921;43.586;1.408;2022-08-14T12:28:14;4.35;;;2.60;;
15643;SDS011;7921;43.586;1.408;2022-08-14T12:30:43;3.78;;;3.10;;
15643;SDS011;7921;43.586;1.408;2022-08-14T12:35:49;3.90;;;2.67;;
15643;SDS011;7921;43.586;1.408;2022-08-14T12:38:15;4.78;;;2.65;;
15643;SDS011;7921;43.586;1.408;2022-08-14T12:41:00;5.75;;;2.80;;
15643;SDS011;7921;43.586;1.408;2022-08-14T12:43:26;3.67;;;3.08;;
15643;SDS011;7921;43.586;1.408;2022-08-14T12:45:52;4.35;;;3.30;;
15643;SDS011;7921;43.586;1.408;2022-08-14T12:48:21;5.18;;;3.10;;
15643;SDS011;7921;43.586;1.408;2022-08-14T12:50:47;4.15;;;2.70;;
15643;SDS011;7921;43.586;1.408;2022-08-14T12:53:17;4.38;;;2.92;;
15643;SDS011;7921;43.586;1.408;2022-08-14T12:55:43;2.95;;;2.65;;
15643;SDS011;7921;43.586;1.408;2022-08-14T12:58:09;3.47;;;2.63;;
15643;SDS011;7921;43.586;1.408;2022-08-14T13:00:38;3.70;;;2.78;;
15643;SDS011;7921;43.586;1.408;2022-08-14T13:03:22;3.50;;;2.63;;
15643;SDS011;7921;43.586;1.408;2022-08-14T13:05:50;4.53;;;2.53;;
15643;SDS011;7921;43.586;1.408;2022-08-14T13:08:15;3.30;;;2.38;;
15643;SDS011;7921;43.586;1.408;2022-08-14T13:10:41;2.97;;;2.60;;
15643;SDS011;7921;43.586;1.408;2022-08-14T13:13:06;3.70;;;2.65;;
15643;SDS011;7921;43.586;1.408;2022-08-14T13:15:33;4.07;;;2.50;;
15643;SDS011;7921;43.586;1.408;2022-08-14T13:18:00;3.30;;;2.45;;
15643;SDS011;7921;43.586;1.408;2022-08-14T13:20:28;4.55;;;2.50;;
15643;SDS011;7921;43.586;1.408;2022-08-14T13:22:55;3.13;;;2.10;;
15643;SDS011;7921;43.586;1.408;2022-08-14T13:25:22;4.78;;;2.80;;
15643;SDS011;7921;43.586;1.408;2022-08-14T13:27:50;3.78;;;2.60;;
15643;SDS011;7921;43.586;1.408;2022-08-14T13:30:21;4.88;;;2.78;;
15643;SDS011;7921;43.586;1.408;2022-08-14T13:32:49;3.83;;;2.95;;
15643;SDS011;7921;43.586;1.408;2022-08-14T13:35:16;3.53;;;2.20;;
15643;SDS011;7921;43.586;1.408;2022-08-14T13:37:42;3.60;;;2.45;;
15643;SDS011;7921;43.586;1.408;2022-08-14T13:40:15;2.85;;;2.05;;
15643;SDS011;7921;43.586;1.408;2022-08-14T13:42:43;3.85;;;2.63;;
15643;SDS011;7921;43.586;1.408;2022-08-14T13:45:10;4.45;;;2.47;;
15643;SDS011;7921;43.586;1.408;2022-08-14T13:47:36;3.33;;;2.70;;
15643;SDS011;7921;43.586;1.408;2022-08-14T13:50:03;2.83;;;2.30;;
15643;SDS011;7921;43.586;1.408;2022-08-14T13:55:11;4.45;;;2.40;;
15643;SDS011;7921;43.586;1.408;2022-08-14T13:57:40;3.28;;;2.30;;
15643;SDS011;7921;43.586;1.408;2022-08-14T14:00:08;4.05;;;2.72;;
15643;SDS011;7921;43.586;1.408;2022-08-14T14:02:39;2.78;;;2.15;;
15643;SDS011;7921;43.586;1.408;2022-08-14T14:05:06;2.60;;;2.40;;
15643;SDS011;7921;43.586;1.408;2022-08-14T14:07:33;2.67;;;2.42;;
15643;SDS011;7921;43.586;1.408;2022-08-14T14:10:00;3.30;;;2.30;;
15643;SDS011;7921;43.586;1.408;2022-08-14T14:12:28;2.50;;;2.30;;
15643;SDS011;7921;43.586;1.408;2022-08-14T14:14:55;4.93;;;4.07;;
15643;SDS011;7921;43.586;1.408;2022-08-14T14:17:20;2.80;;;2.30;;
15643;SDS011;7921;43.586;1.408;2022-08-14T14:19:49;5.15;;;2.50;;
15643;SDS011;7921;43.586;1.408;2022-08-14T14:22:15;4.07;;;2.42;;
15643;SDS011;7921;43.586;1.408;2022-08-14T14:24:42;3.72;;;2.50;;
15643;SDS011;7921;43.586;1.408;2022-08-14T14:27:09;4.75;;;2.25;;
15643;SDS011;7921;43.586;1.408;2022-08-14T14:29:38;4.45;;;2.83;;
15643;SDS011;7921;43.586;1.408;2022-08-14T14:32:03;6.38;;;2.50;;
15643;SDS011;7921;43.586;1.408;2022-08-14T14:34:30;3.72;;;2.70;;
15643;SDS011;7921;43.586;1.408;2022-08-14T14:36:58;2.45;;;2.25;;
15643;SDS011;7921;43.586;1.408;2022-08-14T14:39:27;2.60;;;2.40;;
15643;SDS011;7921;43.586;1.408;2022-08-14T14:41:54;5.82;;;2.25;;
15643;SDS011;7921;43.586;1.408;2022-08-14T14:44:26;4.57;;;2.50;;
15643;SDS011;7921;43.586;1.408;2022-08-14T14:46:56;2.33;;;2.10;;
15643;SDS011;7921;43.586;1.408;2022-08-14T14:49:22;3.40;;;2.47;;
15643;SDS011;7921;43.586;1.408;2022-08-14T14:51:49;3.40;;;2.75;;
15643;SDS011;7921;43.586;1.408;2022-08-14T14:54:15;2.38;;;2.15;;
15643;SDS011;7921;43.586;1.408;2022-08-14T14:56:42;4.38;;;2.38;;
15643;SDS011;7921;43.586;1.408;2022-08-14T14:59:09;2.85;;;2.10;;
15643;SDS011;7921;43.586;1.408;2022-08-14T15:01:36;5.25;;;2.20;;
15643;SDS011;7921;43.586;1.408;2022-08-14T15:04:02;4.18;;;2.42;;
15643;SDS011;7921;43.586;1.408;2022-08-14T15:06:29;3.47;;;2.63;;
15643;SDS011;7921;43.586;1.408;2022-08-14T15:08:58;2.72;;;2.40;;
15643;SDS011;7921;43.586;1.408;2022-08-14T15:11:24;2.70;;;2.40;;
15643;SDS011;7921;43.586;1.408;2022-08-14T15:13:52;3.65;;;2.25;;
15643;SDS011;7921;43.586;1.408;2022-08-14T15:16:18;3.50;;;2.30;;
15643;SDS011;7921;43.586;1.408;2022-08-14T15:18:45;2.97;;;2.47;;
15643;SDS011;7921;43.586;1.408;2022-08-14T15:21:12;4.97;;;2.42;;
15643;SDS011;7921;43.586;1.408;2022-08-14T15:23:38;2.47;;;2.22;;
15643;SDS011;7921;43.586;1.408;2022-08-14T15:26:05;4.05;;;2.53;;
15643;SDS011;7921;43.586;1.408;2022-08-14T15:28:31;4.82;;;2.70;;
15643;SDS011;7921;43.586;1.408;2022-08-14T15:31:00;2.35;;;2.15;;
15643;SDS011;7921;43.586;1.408;2022-08-14T15:33:28;2.95;;;2.55;;
15643;SDS011;7921;43.586;1.408;2022-08-14T15:36:13;2.60;;;2.40;;
15643;SDS011;7921;43.586;1.408;2022-08-14T15:38:38;3.08;;;2.30;;